Time;durP1;ratioP1;P1;durP2;ratioP2;P2;SDS_P1;SDS_P2;PMS_P1;PMS_P2;Temp;Humidity;BMP_temperature;BMP_pressure;BME280_temperature;BME280_humidity;BME280_pressure;Samples;Min_cycle;Max_cycle;Signal;HPM_P1;HPM_P2
2023/09/08 00:00:25;;;;;;;57.27;3.00;;;;;;;;;;4936833;29;20449;-72
2023/09/08 00:02:52;;;;;;;57.17;2.83;;;;;;;;;;4936648;29;20973;-72
2023/09/08 00:05:19;;;;;;;56.67;2.57;;;;;;;;;;4936235;29;20454;-72
2023/09/08 00:07:46;;;;;;;56.70;2.70;;;;;;;;;;4936536;29;20449;-71
2023/09/08 00:10:14;;;;;;;58.10;3.03;;;;;;;;;;4936493;29;20946;-71
2023/09/08 00:12:41;;;;;;;57.30;2.70;;;;;;;;;;4936693;29;20457;-70
2023/09/08 00:15:09;;;;;;;57.30;3.17;;;;;;;;;;4936786;29;20458;-72
2023/09/08 00:17:37;;;;;;;57.40;3.67;;;;;;;;;;4951648;29;20505;-72
2023/09/08 00:20:08;;;;;;;59.40;3.47;;;;;;;;;;4955504;28;20536;-72
2023/09/08 00:22:35;;;;;;;56.90;2.90;;;;;;;;;;4955348;28;20761;-72
2023/09/08 00:25:03;;;;;;;57.77;3.57;;;;;;;;;;4955291;28;20449;-72
2023/09/08 00:27:32;;;;;;;58.83;3.23;;;;;;;;;;4955061;28;20469;-72
2023/09/08 00:30:01;;;;;;;56.87;2.83;;;;;;;;;;4943368;29;20461;-72
2023/09/08 00:32:28;;;;;;;57.20;3.17;;;;;;;;;;4947334;28;20972;-72
2023/09/08 00:34:55;;;;;;;56.80;2.30;;;;;;;;;;4947185;28;20455;-72
2023/09/08 00:37:22;;;;;;;57.23;3.00;;;;;;;;;;4940098;28;20500;-71
2023/09/08 00:39:50;;;;;;;57.80;4.53;;;;;;;;;;4934945;29;20829;-72
2023/09/08 00:42:17;;;;;;;57.07;2.70;;;;;;;;;;4948623;29;20552;-71
2023/09/08 00:44:45;;;;;;;56.87;2.77;;;;;;;;;;4937410;28;20680;-72
2023/09/08 00:47:13;;;;;;;57.77;2.83;;;;;;;;;;4935463;29;20478;-71
2023/09/08 00:49:40;;;;;;;59.97;3.00;;;;;;;;;;4935731;29;20458;-71
2023/09/08 00:52:07;;;;;;;56.53;2.47;;;;;;;;;;4935477;29;20463;-72
2023/09/08 00:54:34;;;;;;;56.83;2.37;;;;;;;;;;4935448;29;20534;-70
2023/09/08 00:57:03;;;;;;;56.90;2.37;;;;;;;;;;4935473;29;20496;-71
2023/09/08 00:59:31;;;;;;;56.90;2.80;;;;;;;;;;4935655;29;20859;-71
2023/09/08 01:01:59;;;;;;;57.07;3.10;;;;;;;;;;4941827;29;20453;-71
2023/09/08 01:04:26;;;;;;;57.03;2.73;;;;;;;;;;4943222;29;20458;-69
2023/09/08 01:06:54;;;;;;;56.77;3.13;;;;;;;;;;4935222;29;20487;-71
2023/09/08 01:09:21;;;;;;;56.87;2.90;;;;;;;;;;4935534;29;20456;-71
2023/09/08 01:11:48;;;;;;;57.87;3.23;;;;;;;;;;4935728;29;20457;-71
2023/09/08 01:14:15;;;;;;;58.60;2.80;;;;;;;;;;4935426;29;20453;-71
2023/09/08 01:16:43;;;;;;;56.57;2.23;;;;;;;;;;4934974;29;20473;-72
2023/09/08 01:19:13;;;;;;;57.10;2.70;;;;;;;;;;4934745;29;20456;-72
2023/09/08 01:21:53;;;;;;;57.00;3.07;;;;;;;;;;4935280;29;20954;-71
2023/09/08 01:24:31;;;;;;;57.27;3.50;;;;;;;;;;4949272;29;20461;-71
2023/09/08 01:27:00;;;;;;;57.83;2.90;;;;;;;;;;4935033;29;20486;-72
2023/09/08 01:29:28;;;;;;;56.97;2.70;;;;;;;;;;4934991;29;20964;-72
2023/09/08 01:31:55;;;;;;;56.87;2.33;;;;;;;;;;4935002;29;20825;-72
2023/09/08 01:34:22;;;;;;;57.67;3.10;;;;;;;;;;4934862;29;20688;-71
2023/09/08 01:36:49;;;;;;;57.20;3.20;;;;;;;;;;4934447;29;20478;-71
2023/09/08 01:39:16;;;;;;;57.17;3.03;;;;;;;;;;4934995;29;20466;-71
2023/09/08 01:41:44;;;;;;;57.57;3.00;;;;;;;;;;4935014;29;20899;-71
2023/09/08 01:44:12;;;;;;;57.40;3.17;;;;;;;;;;4934901;29;20457;-71
2023/09/08 01:46:40;;;;;;;56.83;2.70;;;;;;;;;;4934359;29;20662;-69
2023/09/08 01:49:08;;;;;;;57.20;3.30;;;;;;;;;;4934679;29;20953;-71
2023/09/08 01:51:35;;;;;;;57.70;2.87;;;;;;;;;;4934459;29;20470;-72
2023/09/08 01:54:02;;;;;;;56.93;3.03;;;;;;;;;;4934735;29;20450;-72
2023/09/08 01:56:29;;;;;;;57.17;3.10;;;;;;;;;;4934156;29;20481;-71
2023/09/08 01:58:56;;;;;;;56.97;2.93;;;;;;;;;;4934665;29;20991;-72
2023/09/08 02:01:25;;;;;;;58.40;3.07;;;;;;;;;;4934693;29;20450;-72
2023/09/08 02:03:52;;;;;;;57.87;3.40;;;;;;;;;;4936272;29;20466;-71
2023/09/08 02:06:19;;;;;;;56.90;3.13;;;;;;;;;;4953198;28;20473;-72
2023/09/08 02:08:46;;;;;;;56.90;2.70;;;;;;;;;;4953405;28;20890;-72
2023/09/08 02:11:13;;;;;;;56.80;2.40;;;;;;;;;;4953473;28;20459;-72
2023/09/08 02:13:40;;;;;;;57.27;3.07;;;;;;;;;;4953216;28;20948;-72
2023/09/08 02:16:08;;;;;;;70.37;3.57;;;;;;;;;;4953158;28;20473;-72
2023/09/08 02:18:36;;;;;;;57.77;3.83;;;;;;;;;;4953243;28;20492;-71
2023/09/08 02:21:03;;;;;;;57.20;2.90;;;;;;;;;;4953726;28;20838;-72
2023/09/08 02:23:30;;;;;;;56.87;3.40;;;;;;;;;;4953488;28;20551;-71
2023/09/08 02:25:57;;;;;;;56.83;2.70;;;;;;;;;;4952649;28;21076;-72
2023/09/08 02:28:24;;;;;;;56.87;2.60;;;;;;;;;;4953258;28;20445;-72
2023/09/08 02:30:51;;;;;;;57.33;3.17;;;;;;;;;;4950433;28;20453;-71
2023/09/08 02:33:19;;;;;;;57.10;2.90;;;;;;;;;;4935055;29;20475;-72
2023/09/08 02:35:47;;;;;;;57.27;2.83;;;;;;;;;;4941599;29;20846;-72
2023/09/08 02:38:14;;;;;;;57.10;2.70;;;;;;;;;;4946900;29;21040;-72
2023/09/08 02:40:41;;;;;;;57.03;2.57;;;;;;;;;;4933786;29;20452;-72
2023/09/08 02:43:08;;;;;;;56.97;2.57;;;;;;;;;;4935180;29;20837;-72
2023/09/08 02:45:35;;;;;;;57.03;2.87;;;;;;;;;;4941170;29;20460;-71
2023/09/08 02:48:03;;;;;;;57.20;2.90;;;;;;;;;;4944920;29;20492;-71
2023/09/08 02:50:30;;;;;;;57.20;3.10;;;;;;;;;;4952539;28;20457;-72
2023/09/08 02:52:58;;;;;;;57.50;3.77;;;;;;;;;;4952773;28;20457;-72
2023/09/08 02:55:25;;;;;;;57.20;2.90;;;;;;;;;;4952482;28;20449;-72
2023/09/08 02:57:53;;;;;;;57.83;3.67;;;;;;;;;;4952742;28;20452;-72
2023/09/08 03:00:20;;;;;;;57.40;2.60;;;;;;;;;;4952193;28;20453;-73
2023/09/08 03:02:47;;;;;;;57.07;2.73;;;;;;;;;;4943204;28;20841;-71
2023/09/08 03:05:14;;;;;;;57.40;3.10;;;;;;;;;;4933488;29;20453;-71
2023/09/08 03:07:41;;;;;;;57.17;3.20;;;;;;;;;;4933591;29;20497;-71
2023/09/08 03:10:10;;;;;;;57.10;2.83;;;;;;;;;;4937822;29;20472;-71
2023/09/08 03:12:37;;;;;;;56.77;2.50;;;;;;;;;;4953237;28;20453;-71
2023/09/08 03:15:05;;;;;;;57.00;2.60;;;;;;;;;;4933482;29;20450;-72
2023/09/08 03:17:32;;;;;;;56.60;2.40;;;;;;;;;;4933540;29;20469;-72
2023/09/08 03:19:59;;;;;;;56.70;2.37;;;;;;;;;;4933518;29;20450;-71
2023/09/08 03:22:26;;;;;;;56.70;2.47;;;;;;;;;;4933648;29;20472;-72
2023/09/08 03:24:53;;;;;;;56.83;2.47;;;;;;;;;;4933344;29;20446;-70
2023/09/08 03:27:21;;;;;;;57.20;2.80;;;;;;;;;;4933152;29;20473;-72
2023/09/08 03:29:49;;;;;;;56.83;2.60;;;;;;;;;;4933540;29;20445;-72
2023/09/08 03:32:16;;;;;;;57.93;3.00;;;;;;;;;;4933628;29;20460;-72
2023/09/08 03:34:43;;;;;;;57.17;3.00;;;;;;;;;;4933460;29;20969;-71
2023/09/08 03:37:10;;;;;;;56.80;2.40;;;;;;;;;;4933510;29;20477;-72
2023/09/08 03:39:37;;;;;;;57.80;4.03;;;;;;;;;;4933390;29;20456;-72
2023/09/08 03:42:04;;;;;;;56.87;2.60;;;;;;;;;;4933773;29;20762;-71
2023/09/08 03:44:33;;;;;;;56.97;3.10;;;;;;;;;;4933240;29;20453;-69
2023/09/08 03:47:00;;;;;;;57.00;2.90;;;;;;;;;;4933239;29;20499;-71
2023/09/08 03:49:27;;;;;;;56.87;2.40;;;;;;;;;;4933239;29;20493;-72
2023/09/08 03:51:54;;;;;;;57.30;2.83;;;;;;;;;;4933209;29;20461;-72
2023/09/08 03:54:21;;;;;;;57.17;2.97;;;;;;;;;;4933209;29;20454;-71
2023/09/08 03:56:48;;;;;;;57.27;3.40;;;;;;;;;;4933003;29;20838;-71
2023/09/08 03:59:15;;;;;;;56.87;3.10;;;;;;;;;;4933057;29;20544;-72
2023/09/08 04:01:44;;;;;;;57.70;4.10;;;;;;;;;;4933270;29;20454;-72
2023/09/08 04:04:11;;;;;;;58.67;3.40;;;;;;;;;;4933442;29;20445;-72
2023/09/08 04:06:38;;;;;;;57.20;3.10;;;;;;;;;;4932737;29;20981;-72
2023/09/08 04:09:05;;;;;;;57.10;2.70;;;;;;;;;;4932826;29;20594;-72
2023/09/08 04:11:32;;;;;;;57.10;2.60;;;;;;;;;;4933181;29;20471;-72
2023/09/08 04:13:59;;;;;;;56.83;2.90;;;;;;;;;;4933178;29;20826;-72
2023/09/08 04:16:27;;;;;;;57.77;4.10;;;;;;;;;;4935499;29;20469;-72
2023/09/08 04:18:56;;;;;;;57.67;3.47;;;;;;;;;;4936448;29;20792;-72
2023/09/08 04:21:23;;;;;;;57.93;3.13;;;;;;;;;;4936300;29;20961;-72
2023/09/08 04:23:50;;;;;;;57.00;3.00;;;;;;;;;;4936556;29;20715;-72
2023/09/08 04:26:17;;;;;;;56.90;2.47;;;;;;;;;;4936355;29;20473;-71
2023/09/08 04:28:44;;;;;;;59.10;4.13;;;;;;;;;;4936338;29;20519;-72
2023/09/08 04:31:11;;;;;;;57.17;2.80;;;;;;;;;;4943599;29;20461;-72
2023/09/08 04:33:38;;;;;;;56.77;2.70;;;;;;;;;;4944085;29;20826;-71
2023/09/08 04:36:07;;;;;;;57.60;3.57;;;;;;;;;;4954490;29;20475;-72
2023/09/08 04:38:34;;;;;;;57.60;4.00;;;;;;;;;;4947374;28;20457;-72
2023/09/08 04:41:01;;;;;;;57.00;3.00;;;;;;;;;;4936713;28;20955;-72
2023/09/08 04:43:28;;;;;;;56.80;2.90;;;;;;;;;;4950016;29;20544;-72
2023/09/08 04:45:55;;;;;;;56.73;2.90;;;;;;;;;;4937260;28;20473;-72
2023/09/08 04:48:22;;;;;;;56.67;2.70;;;;;;;;;;4935852;29;20489;-73
2023/09/08 04:50:51;;;;;;;56.57;2.50;;;;;;;;;;4935995;29;20457;-73
2023/09/08 04:53:19;;;;;;;56.87;2.40;;;;;;;;;;4936192;29;20460;-72
2023/09/08 04:55:46;;;;;;;57.93;2.80;;;;;;;;;;4935347;29;20482;-72
2023/09/08 04:58:13;;;;;;;58.00;3.20;;;;;;;;;;4935877;29;20450;-72
2023/09/08 05:00:40;;;;;;;56.77;2.90;;;;;;;;;;4945102;29;20448;-72
2023/09/08 05:03:08;;;;;;;56.97;2.70;;;;;;;;;;4946529;28;20828;-72
2023/09/08 05:05:35;;;;;;;57.90;3.57;;;;;;;;;;4954348;28;20459;-72
2023/09/08 05:08:02;;;;;;;57.10;3.10;;;;;;;;;;4954589;28;20961;-72
2023/09/08 05:10:30;;;;;;;56.77;2.70;;;;;;;;;;4954689;28;20448;-73
2023/09/08 05:12:57;;;;;;;56.80;2.90;;;;;;;;;;4954400;28;20945;-68
2023/09/08 05:15:25;;;;;;;57.00;2.70;;;;;;;;;;4954363;28;20448;-69
2023/09/08 05:17:52;;;;;;;56.87;2.50;;;;;;;;;;4954376;28;20571;-69
2023/09/08 05:20:19;;;;;;;56.80;2.60;;;;;;;;;;4954502;28;20441;-69
2023/09/08 05:22:47;;;;;;;57.20;3.30;;;;;;;;;;4954105;28;20457;-70
2023/09/08 05:25:14;;;;;;;56.83;2.83;;;;;;;;;;4953986;28;20829;-68
2023/09/08 05:27:42;;;;;;;56.57;2.60;;;;;;;;;;4953948;28;20471;-70
2023/09/08 05:30:10;;;;;;;57.10;2.80;;;;;;;;;;4954095;28;20880;-70
2023/09/08 05:32:37;;;;;;;56.80;2.97;;;;;;;;;;4954312;28;20460;-70
2023/09/08 05:35:04;;;;;;;58.07;3.27;;;;;;;;;;4954144;28;20475;-70
2023/09/08 05:37:31;;;;;;;56.47;2.40;;;;;;;;;;4953900;28;20473;-68
2023/09/08 05:39:58;;;;;;;56.33;2.60;;;;;;;;;;4953814;28;20465;-67
2023/09/08 05:42:25;;;;;;;57.90;2.47;;;;;;;;;;4953959;28;20932;-68
2023/09/08 05:44:54;;;;;;;56.80;2.40;;;;;;;;;;4953722;28;20445;-68
2023/09/08 05:47:21;;;;;;;57.30;3.43;;;;;;;;;;4953838;28;20814;-69
2023/09/08 05:49:48;;;;;;;56.50;2.30;;;;;;;;;;4953591;28;20501;-68
2023/09/08 05:52:15;;;;;;;57.00;2.80;;;;;;;;;;4953861;28;20459;-69
2023/09/08 05:54:43;;;;;;;57.07;2.93;;;;;;;;;;4953849;28;20537;-69
2023/09/08 05:57:10;;;;;;;58.10;3.40;;;;;;;;;;4953496;28;20559;-69
2023/09/08 05:59:37;;;;;;;56.80;2.73;;;;;;;;;;4953939;28;20451;-69
2023/09/08 06:02:05;;;;;;;56.80;2.70;;;;;;;;;;4953749;28;20454;-68
2023/09/08 06:04:32;;;;;;;57.87;3.47;;;;;;;;;;4953710;28;20475;-68
2023/09/08 06:07:00;;;;;;;56.80;3.33;;;;;;;;;;4953140;28;20567;-69
2023/09/08 06:09:27;;;;;;;56.60;2.53;;;;;;;;;;4953510;28;20484;-69
2023/09/08 06:11:54;;;;;;;57.40;3.70;;;;;;;;;;4953946;28;20480;-68
2023/09/08 06:14:21;;;;;;;56.77;3.13;;;;;;;;;;4953781;28;20455;-69
2023/09/08 06:16:48;;;;;;;58.17;3.33;;;;;;;;;;4953140;28;20483;-66
2023/09/08 06:19:16;;;;;;;57.30;3.03;;;;;;;;;;4953371;28;20929;-69
2023/09/08 06:21:43;;;;;;;57.27;3.23;;;;;;;;;;4953514;28;20452;-69
2023/09/08 06:24:10;;;;;;;56.67;2.80;;;;;;;;;;4953264;28;20444;-67
2023/09/08 06:26:39;;;;;;;57.10;2.63;;;;;;;;;;4953261;28;20499;-70
2023/09/08 06:29:06;;;;;;;56.67;2.23;;;;;;;;;;4952698;28;20902;-68
2023/09/08 06:31:33;;;;;;;57.40;3.23;;;;;;;;;;4952689;29;20445;-68
2023/09/08 06:34:00;;;;;;;56.60;2.50;;;;;;;;;;4953268;28;20855;-69
2023/09/08 06:36:29;;;;;;;57.47;2.73;;;;;;;;;;4944846;28;20469;-70
2023/09/08 06:38:56;;;;;;;56.50;2.70;;;;;;;;;;4944242;28;20453;-69
2023/09/08 06:41:23;;;;;;;60.10;3.70;;;;;;;;;;4953244;28;20473;-68
2023/09/08 06:43:50;;;;;;;56.80;2.77;;;;;;;;;;4953291;28;20445;-69
2023/09/08 06:46:18;;;;;;;57.17;2.80;;;;;;;;;;4952953;28;20472;-69
2023/09/08 06:48:45;;;;;;;58.43;2.87;;;;;;;;;;4953047;28;20495;-69
2023/09/08 06:51:12;;;;;;;56.57;2.27;;;;;;;;;;4952837;28;20475;-70
2023/09/08 06:53:40;;;;;;;56.47;2.63;;;;;;;;;;4953147;28;20802;-70
2023/09/08 06:56:07;;;;;;;59.07;3.33;;;;;;;;;;4952863;28;20473;-69
2023/09/08 06:58:34;;;;;;;57.53;2.80;;;;;;;;;;4952982;28;20568;-69
2023/09/08 07:01:02;;;;;;;59.67;3.30;;;;;;;;;;4953046;28;20449;-69
2023/09/08 07:03:36;;;;;;;57.20;3.60;;;;;;;;;;4953024;28;20857;-71
2023/09/08 07:06:03;;;;;;;56.27;2.50;;;;;;;;;;4952169;28;20473;-71
2023/09/08 07:08:30;;;;;;;56.47;2.50;;;;;;;;;;4952618;28;20462;-70
2023/09/08 07:10:59;;;;;;;56.43;2.23;;;;;;;;;;4952832;28;20853;-70
2023/09/08 07:13:26;;;;;;;56.77;2.63;;;;;;;;;;4952937;28;20445;-70
2023/09/08 07:15:53;;;;;;;57.63;3.13;;;;;;;;;;4952205;28;20846;-71
2023/09/08 07:18:20;;;;;;;59.00;3.30;;;;;;;;;;4953016;28;20457;-69
2023/09/08 07:20:48;;;;;;;57.30;2.93;;;;;;;;;;4952543;28;20448;-70
2023/09/08 07:23:16;;;;;;;57.10;2.70;;;;;;;;;;4952836;28;20634;-71
2023/09/08 07:25:46;;;;;;;57.27;3.07;;;;;;;;;;4952362;28;20472;-71
2023/09/08 07:28:15;;;;;;;56.47;2.57;;;;;;;;;;4952507;28;20454;-71
2023/09/08 07:30:42;;;;;;;57.60;3.30;;;;;;;;;;4952534;28;20500;-70
2023/09/08 07:33:09;;;;;;;57.23;2.70;;;;;;;;;;4952657;28;20801;-71
2023/09/08 07:35:38;;;;;;;56.77;2.57;;;;;;;;;;4952524;28;20457;-70
2023/09/08 07:38:05;;;;;;;57.20;3.00;;;;;;;;;;4952761;28;20461;-71
2023/09/08 07:40:33;;;;;;;57.43;3.50;;;;;;;;;;4953122;28;20454;-70
2023/09/08 07:43:00;;;;;;;57.10;3.20;;;;;;;;;;4952836;28;20828;-73
2023/09/08 07:45:28;;;;;;;57.20;3.57;;;;;;;;;;4947688;28;20464;-70
2023/09/08 07:47:55;;;;;;;56.70;2.50;;;;;;;;;;4933203;29;20989;-71
2023/09/08 07:50:23;;;;;;;57.77;2.87;;;;;;;;;;4936226;29;20490;-71
2023/09/08 07:52:51;;;;;;;56.60;2.60;;;;;;;;;;4937257;29;20476;-70
2023/09/08 07:55:18;;;;;;;57.37;2.57;;;;;;;;;;4936988;29;20744;-72
2023/09/08 07:57:46;;;;;;;56.57;2.50;;;;;;;;;;4936947;29;20474;-71
2023/09/08 08:00:14;;;;;;;58.07;3.07;;;;;;;;;;4936678;29;20501;-72
2023/09/08 08:02:43;;;;;;;57.57;3.40;;;;;;;;;;4936711;29;20954;-72
2023/09/08 08:05:10;;;;;;;58.50;3.60;;;;;;;;;;4936606;29;20528;-72
2023/09/08 08:07:38;;;;;;;57.63;2.40;;;;;;;;;;4936709;29;20476;-72
2023/09/08 08:10:05;;;;;;;56.67;2.50;;;;;;;;;;4938518;29;20489;-71
2023/09/08 08:12:32;;;;;;;57.60;2.93;;;;;;;;;;4951389;29;20455;-72
2023/09/08 08:14:59;;;;;;;56.60;2.30;;;;;;;;;;4938810;28;20536;-71
2023/09/08 08:17:27;;;;;;;57.10;3.40;;;;;;;;;;4943399;29;20613;-71
2023/09/08 08:19:56;;;;;;;56.60;2.33;;;;;;;;;;4939533;28;20815;-72
2023/09/08 08:22:23;;;;;;;56.67;2.77;;;;;;;;;;4939074;29;20837;-71
2023/09/08 08:24:50;;;;;;;56.80;2.30;;;;;;;;;;4944603;29;20456;-72
2023/09/08 08:27:17;;;;;;;57.57;2.10;;;;;;;;;;4955129;29;20465;-71
2023/09/08 08:29:44;;;;;;;58.40;3.07;;;;;;;;;;4946052;28;20592;-72
2023/09/08 08:32:12;;;;;;;57.50;3.07;;;;;;;;;;4947605;28;20449;-72
2023/09/08 08:34:39;;;;;;;56.47;2.20;;;;;;;;;;4950076;28;20461;-72
2023/09/08 08:37:07;;;;;;;59.63;3.10;;;;;;;;;;4945281;29;20480;-72
2023/09/08 08:39:34;;;;;;;56.97;2.70;;;;;;;;;;4936564;29;20861;-72
2023/09/08 08:42:08;;;;;;;56.90;2.47;;;;;;;;;;4936189;29;20450;-69
2023/09/08 08:44:36;;;;;;;56.40;1.93;;;;;;;;;;4944408;29;20457;-68
2023/09/08 08:47:03;;;;;;;57.40;2.57;;;;;;;;;;4943738;29;20484;-69
2023/09/08 08:49:32;;;;;;;56.57;2.80;;;;;;;;;;4936034;29;20862;-69
2023/09/08 08:52:00;;;;;;;56.60;2.80;;;;;;;;;;4935816;29;20565;-68
2023/09/08 08:54:29;;;;;;;56.90;2.93;;;;;;;;;;4935704;29;20473;-68
2023/09/08 08:56:56;;;;;;;56.43;2.57;;;;;;;;;;4935404;29;20485;-69
2023/09/08 08:59:23;;;;;;;57.00;2.70;;;;;;;;;;4936109;29;20489;-68
2023/09/08 09:01:51;;;;;;;58.57;2.93;;;;;;;;;;4935132;29;20457;-68
2023/09/08 09:04:18;;;;;;;57.03;2.50;;;;;;;;;;4935600;29;20489;-68
2023/09/08 09:06:45;;;;;;;57.27;3.00;;;;;;;;;;4935232;29;20499;-68
2023/09/08 09:09:13;;;;;;;57.07;2.60;;;;;;;;;;4935338;29;20454;-68
2023/09/08 09:11:41;;;;;;;57.67;2.20;;;;;;;;;;4935814;29;20486;-67
2023/09/08 09:14:09;;;;;;;58.20;4.03;;;;;;;;;;4935788;29;20476;-69
2023/09/08 09:16:40;;;;;;;58.17;3.70;;;;;;;;;;4934998;29;20501;-69
2023/09/08 09:19:08;;;;;;;56.23;2.17;;;;;;;;;;4952597;29;20496;-71
2023/09/08 09:21:43;;;;;;;56.93;2.40;;;;;;;;;;4954470;28;20483;-70
2023/09/08 09:24:14;;;;;;;56.57;2.30;;;;;;;;;;4954454;28;20457;-69
2023/09/08 09:26:43;;;;;;;57.00;3.03;;;;;;;;;;4954034;28;20988;-69
2023/09/08 09:29:14;;;;;;;55.87;2.00;;;;;;;;;;4954593;28;20958;-69
2023/09/08 09:31:51;;;;;;;56.23;2.40;;;;;;;;;;4954135;28;20488;-69
2023/09/08 09:34:18;;;;;;;56.80;2.90;;;;;;;;;;4954400;28;20456;-69
2023/09/08 09:36:48;;;;;;;57.40;3.80;;;;;;;;;;4953784;28;20475;-70
2023/09/08 09:39:15;;;;;;;56.67;2.70;;;;;;;;;;4953892;28;21055;-69
2023/09/08 09:41:43;;;;;;;57.97;2.87;;;;;;;;;;4954017;28;20449;-70
2023/09/08 09:44:11;;;;;;;56.90;2.50;;;;;;;;;;4952028;28;20456;-70
2023/09/08 09:46:38;;;;;;;57.57;3.80;;;;;;;;;;4934360;29;21009;-69
2023/09/08 09:49:05;;;;;;;56.70;2.57;;;;;;;;;;4934920;29;20829;-70
2023/09/08 09:51:32;;;;;;;56.43;2.70;;;;;;;;;;4934788;29;20499;-70
2023/09/08 09:53:59;;;;;;;57.00;2.57;;;;;;;;;;4934550;29;20460;-70
2023/09/08 09:56:27;;;;;;;57.77;3.00;;;;;;;;;;4934430;29;20470;-70
2023/09/08 09:58:56;;;;;;;59.00;2.90;;;;;;;;;;4934712;29;20458;-70
2023/09/08 10:01:24;;;;;;;56.73;2.80;;;;;;;;;;4953661;29;20457;-69
2023/09/08 10:03:51;;;;;;;62.97;2.47;;;;;;;;;;4953542;28;20455;-70
2023/09/08 10:06:21;;;;;;;57.50;3.30;;;;;;;;;;4953218;28;20487;-70
2023/09/08 10:08:48;;;;;;;55.60;2.00;;;;;;;;;;4953668;28;20459;-70
2023/09/08 10:11:16;;;;;;;55.60;2.17;;;;;;;;;;4953479;28;20518;-69
2023/09/08 10:13:44;;;;;;;56.73;2.30;;;;;;;;;;4953909;28;20642;-68
2023/09/08 10:16:14;;;;;;;56.77;2.70;;;;;;;;;;4953047;28;20469;-69
2023/09/08 10:18:43;;;;;;;55.90;2.40;;;;;;;;;;4953786;28;20456;-69
2023/09/08 10:21:11;;;;;;;55.80;2.37;;;;;;;;;;4953412;28;20455;-71
2023/09/08 10:23:50;;;;;;;56.43;2.73;;;;;;;;;;4953189;28;20563;-69
2023/09/08 10:26:18;;;;;;;55.47;2.60;;;;;;;;;;4952651;28;20920;-70
2023/09/08 10:28:45;;;;;;;55.90;2.30;;;;;;;;;;4953321;28;20461;-70
2023/09/08 10:31:15;;;;;;;56.00;3.00;;;;;;;;;;4948109;28;20514;-69
2023/09/08 10:33:42;;;;;;;55.10;2.20;;;;;;;;;;4942004;29;20553;-69
2023/09/08 10:36:10;;;;;;;56.93;3.17;;;;;;;;;;4943500;28;20483;-69
2023/09/08 10:38:37;;;;;;;55.27;2.50;;;;;;;;;;4938553;29;20825;-69
2023/09/08 10:41:27;;;;;;;55.70;2.63;;;;;;;;;;4952879;28;20532;-69
2023/09/08 10:43:57;;;;;;;55.00;2.40;;;;;;;;;;4953139;28;20504;-68
2023/09/08 10:46:27;;;;;;;55.10;2.63;;;;;;;;;;4952476;28;20464;-68
2023/09/08 10:48:54;;;;;;;54.93;2.40;;;;;;;;;;4945929;28;20836;-69
2023/09/08 10:51:22;;;;;;;54.90;2.40;;;;;;;;;;4933967;29;20449;-70
2023/09/08 10:53:50;;;;;;;54.97;2.37;;;;;;;;;;4933960;29;20545;-70
2023/09/08 10:56:18;;;;;;;55.83;2.63;;;;;;;;;;4933582;29;20901;-70
2023/09/08 10:58:50;;;;;;;55.50;2.60;;;;;;;;;;4934014;29;20898;-70
2023/09/08 11:01:17;;;;;;;55.00;2.60;;;;;;;;;;4951283;29;21039;-70
2023/09/08 11:03:49;;;;;;;55.20;3.20;;;;;;;;;;4952947;28;20571;-71
2023/09/08 11:06:17;;;;;;;55.77;2.50;;;;;;;;;;4952473;28;20477;-71
2023/09/08 11:08:45;;;;;;;54.97;2.20;;;;;;;;;;4952942;28;20968;-72
2023/09/08 11:11:12;;;;;;;54.67;2.33;;;;;;;;;;4952778;28;20459;-74
2023/09/08 11:13:40;;;;;;;54.90;2.40;;;;;;;;;;4953043;28;20453;-74
2023/09/08 11:16:07;;;;;;;55.00;2.60;;;;;;;;;;4952265;28;20873;-75
2023/09/08 11:18:35;;;;;;;55.33;2.47;;;;;;;;;;4953111;28;20452;-73
2023/09/08 11:21:05;;;;;;;55.20;2.40;;;;;;;;;;4953149;28;20503;-72
2023/09/08 11:23:32;;;;;;;54.53;2.43;;;;;;;;;;4953286;28;20540;-74
2023/09/08 11:26:00;;;;;;;54.30;1.77;;;;;;;;;;4956521;28;20472;-73
2023/09/08 11:28:28;;;;;;;54.60;2.20;;;;;;;;;;4956486;28;20451;-73
2023/09/08 11:30:56;;;;;;;55.10;2.60;;;;;;;;;;4956731;28;20449;-73
2023/09/08 11:33:24;;;;;;;55.70;3.10;;;;;;;;;;4956556;28;20450;-72
2023/09/08 11:35:52;;;;;;;55.27;2.67;;;;;;;;;;4956166;28;20465;-73
2023/09/08 11:38:20;;;;;;;55.73;2.33;;;;;;;;;;4955887;28;20552;-73
2023/09/08 11:40:48;;;;;;;54.93;2.20;;;;;;;;;;4955989;28;20824;-73
2023/09/08 11:43:15;;;;;;;56.97;2.47;;;;;;;;;;4956131;28;20453;-74
2023/09/08 11:45:44;;;;;;;55.10;2.20;;;;;;;;;;4956030;28;20814;-73
2023/09/08 11:48:11;;;;;;;54.83;2.40;;;;;;;;;;4955648;28;20459;-73
2023/09/08 11:50:38;;;;;;;55.10;2.60;;;;;;;;;;4956188;28;20452;-73
2023/09/08 11:53:05;;;;;;;54.97;2.50;;;;;;;;;;4956094;28;20484;-73
2023/09/08 11:55:35;;;;;;;55.53;2.73;;;;;;;;;;4955605;28;20456;-73
2023/09/08 11:58:02;;;;;;;55.40;2.30;;;;;;;;;;4956266;28;20467;-73
2023/09/08 12:00:30;;;;;;;55.40;2.77;;;;;;;;;;4955821;28;20487;-73
2023/09/08 12:02:57;;;;;;;55.07;2.43;;;;;;;;;;4956545;28;20478;-73
2023/09/08 12:05:25;;;;;;;54.80;2.57;;;;;;;;;;4955608;28;20448;-73
2023/09/08 12:07:52;;;;;;;55.20;2.43;;;;;;;;;;4956478;28;20814;-73
2023/09/08 12:10:20;;;;;;;55.20;2.53;;;;;;;;;;4955625;28;20456;-72
2023/09/08 12:12:53;;;;;;;54.87;2.33;;;;;;;;;;4955853;28;20452;-73
2023/09/08 12:15:33;;;;;;;55.57;2.20;;;;;;;;;;4955286;28;20848;-73
2023/09/08 12:18:00;;;;;;;54.43;2.40;;;;;;;;;;4956025;28;20533;-73
2023/09/08 12:20:27;;;;;;;54.53;2.50;;;;;;;;;;4955344;28;20448;-74
2023/09/08 12:22:54;;;;;;;54.40;2.57;;;;;;;;;;4955515;28;20489;-72
2023/09/08 12:25:22;;;;;;;54.70;2.70;;;;;;;;;;4955160;28;21202;-72
2023/09/08 12:27:52;;;;;;;55.37;2.70;;;;;;;;;;4955585;28;20480;-73
2023/09/08 12:30:20;;;;;;;54.30;2.53;;;;;;;;;;4953223;28;20843;-74
2023/09/08 12:32:48;;;;;;;54.27;2.20;;;;;;;;;;4944180;29;20454;-73
2023/09/08 12:35:21;;;;;;;54.30;2.10;;;;;;;;;;4943078;29;20453;-74
2023/09/08 12:37:48;;;;;;;54.37;2.27;;;;;;;;;;4949281;29;20485;-74
2023/09/08 12:40:16;;;;;;;54.10;2.10;;;;;;;;;;4947741;28;20464;-73
2023/09/08 12:42:43;;;;;;;55.33;2.90;;;;;;;;;;4948154;29;20531;-73
2023/09/08 12:45:11;;;;;;;54.73;3.00;;;;;;;;;;4948226;29;20541;-73
2023/09/08 12:47:38;;;;;;;54.77;2.60;;;;;;;;;;4960832;29;20908;-73
2023/09/08 12:50:06;;;;;;;54.60;2.40;;;;;;;;;;4969438;28;20531;-73
2023/09/08 12:52:33;;;;;;;54.47;2.10;;;;;;;;;;4953830;29;20457;-72
2023/09/08 12:55:00;;;;;;;54.90;2.70;;;;;;;;;;4963744;28;20541;-73
2023/09/08 12:57:27;;;;;;;54.43;2.53;;;;;;;;;;4955161;29;20541;-73
2023/09/08 12:59:54;;;;;;;53.67;2.17;;;;;;;;;;4947522;29;20513;-71
2023/09/08 13:02:23;;;;;;;54.70;2.80;;;;;;;;;;4951913;29;20489;-71
2023/09/08 13:04:50;;;;;;;54.17;2.43;;;;;;;;;;4953504;29;20526;-73
2023/09/08 13:07:17;;;;;;;54.17;2.40;;;;;;;;;;4951226;29;20564;-72
2023/09/08 13:09:44;;;;;;;54.73;2.57;;;;;;;;;;4948681;29;20540;-71
2023/09/08 13:12:13;;;;;;;54.40;2.70;;;;;;;;;;4954594;29;20494;-73
2023/09/08 13:14:40;;;;;;;53.83;2.47;;;;;;;;;;4953487;29;20455;-73
2023/09/08 13:17:07;;;;;;;53.60;2.67;;;;;;;;;;4954196;29;20486;-73
2023/09/08 13:19:37;;;;;;;54.50;2.87;;;;;;;;;;4965424;29;20473;-72
2023/09/08 13:22:04;;;;;;;54.37;3.50;;;;;;;;;;4976139;28;20488;-73
2023/09/08 13:24:33;;;;;;;55.20;3.10;;;;;;;;;;4976494;28;20472;-72
2023/09/08 13:27:01;;;;;;;55.27;3.10;;;;;;;;;;4974524;28;20489;-74
2023/09/08 13:29:28;;;;;;;54.37;2.50;;;;;;;;;;4972849;28;20543;-71
2023/09/08 13:31:55;;;;;;;54.27;2.80;;;;;;;;;;4971665;28;20488;-71
2023/09/08 13:34:22;;;;;;;54.67;2.60;;;;;;;;;;4969279;28;20490;-73
2023/09/08 13:36:50;;;;;;;53.90;2.40;;;;;;;;;;4957570;28;21012;-73
2023/09/08 13:39:18;;;;;;;53.57;2.97;;;;;;;;;;4955940;28;20468;-72
2023/09/08 13:41:49;;;;;;;54.60;2.40;;;;;;;;;;4955832;28;21284;-73
2023/09/08 13:44:17;;;;;;;54.13;3.03;;;;;;;;;;4954774;29;20969;-73
2023/09/08 13:46:44;;;;;;;54.00;2.63;;;;;;;;;;4954016;28;20964;-72
2023/09/08 13:49:11;;;;;;;54.30;2.77;;;;;;;;;;4954813;28;20541;-73
2023/09/08 13:51:38;;;;;;;54.40;2.80;;;;;;;;;;4954480;28;20815;-73
2023/09/08 13:54:07;;;;;;;54.50;2.23;;;;;;;;;;4954552;28;20458;-73
2023/09/08 13:56:34;;;;;;;54.60;2.60;;;;;;;;;;4953772;28;20480;-73
2023/09/08 13:59:02;;;;;;;54.87;3.20;;;;;;;;;;4954809;28;20449;-72
2023/09/08 14:01:29;;;;;;;54.27;2.47;;;;;;;;;;4954566;28;20496;-73
2023/09/08 14:03:56;;;;;;;54.97;2.93;;;;;;;;;;4954582;28;20886;-73
2023/09/08 14:06:24;;;;;;;53.73;2.93;;;;;;;;;;4954172;28;21000;-74
2023/09/08 14:08:51;;;;;;;54.33;2.67;;;;;;;;;;4954706;28;20453;-73
2023/09/08 14:11:20;;;;;;;55.33;3.47;;;;;;;;;;4962524;28;20448;-73
2023/09/08 14:13:47;;;;;;;54.50;2.40;;;;;;;;;;4955343;28;20475;-74
2023/09/08 14:16:14;;;;;;;54.00;3.00;;;;;;;;;;4953355;28;20468;-73
2023/09/08 14:18:41;;;;;;;55.27;3.13;;;;;;;;;;4953590;28;20449;-73
2023/09/08 14:21:08;;;;;;;55.00;2.43;;;;;;;;;;4953534;28;20496;-74
2023/09/08 14:23:37;;;;;;;54.80;3.43;;;;;;;;;;4954754;28;20459;-73
2023/09/08 14:26:04;;;;;;;54.87;2.70;;;;;;;;;;4953703;28;20483;-71
2023/09/08 14:28:33;;;;;;;54.70;2.27;;;;;;;;;;4953534;28;20825;-73
2023/09/08 14:31:00;;;;;;;56.63;3.07;;;;;;;;;;4953617;28;20661;-74
2023/09/08 14:33:28;;;;;;;55.67;2.77;;;;;;;;;;4953842;28;20452;-74